Marathon, Iowa
Current Conditions -  °F | °C
As of 7:35 PM on Tuesday 21 Oct 2014 (Local Time) from KSLB Reporting Station
Clear Clear  
Wind Chill: 57°   Ceiling: Unl
Heat Index: 57°   Visibility: 10mi
Dew Point: 43°   Wind: 12mph
Humidity: 59%   Direction: 130°SE
Pressure: 30.08"   Gusts: NA
Location:  42.86°N, 94.98°W
Report Text: KSLB 220035Z AUTO 13010KT 10SM CLR 14/06 A3008 RMK AO2
Loading
Personal Weather Stations






























Interactive Weather Map
Tropical Storm Tracking
New forecast layout! Learn more

10-Day Weather Forecast

Advertisements
Track Severe Weather on mobile